sensor_id;sensor_type;location;lat;lon;timestamp;temperature;humidity
35637;DHT22;21758;43.542;1.462;2022-08-04T00:00:13;27.10;58.20
35637;DHT22;21758;43.542;1.462;2022-08-04T00:08:06;27.10;61.60
35637;DHT22;21758;43.542;1.462;2022-08-04T00:10:42;27.10;61.60
35637;DHT22;21758;43.542;1.462;2022-08-04T00:13:12;27.00;60.30
35637;DHT22;21758;43.542;1.462;2022-08-04T00:15:38;27.20;61.40
35637;DHT22;21758;43.542;1.462;2022-08-04T00:18:13;27.20;62.20
35637;DHT22;21758;43.542;1.462;2022-08-04T00:20:41;27.20;64.40
35637;DHT22;21758;43.542;1.462;2022-08-04T00:23:07;27.00;65.90
35637;DHT22;21758;43.542;1.462;2022-08-04T00:25:38;27.10;63.20
35637;DHT22;21758;43.542;1.462;2022-08-04T00:28:05;27.00;60.60
35637;DHT22;21758;43.542;1.462;2022-08-04T00:30:31;27.00;60.30
35637;DHT22;21758;43.542;1.462;2022-08-04T00:32:57;27.00;61.90
35637;DHT22;21758;43.542;1.462;2022-08-04T00:35:23;27.00;60.50
35637;DHT22;21758;43.542;1.462;2022-08-04T00:37:50;27.10;57.80
35637;DHT22;21758;43.542;1.462;2022-08-04T00:43:18;27.10;56.90
35637;DHT22;21758;43.542;1.462;2022-08-04T01:13:45;26.60;58.80
35637;DHT22;21758;43.542;1.462;2022-08-04T01:16:16;26.70;54.30
35637;DHT22;21758;43.542;1.462;2022-08-04T01:26:47;26.50;53.80
35637;DHT22;21758;43.542;1.462;2022-08-04T01:29:15;26.60;53.20
35637;DHT22;21758;43.542;1.462;2022-08-04T01:32:22;26.50;51.20
35637;DHT22;21758;43.542;1.462;2022-08-04T01:35:00;26.50;51.70
35637;DHT22;21758;43.542;1.462;2022-08-04T01:40:04;26.40;56.20
35637;DHT22;21758;43.542;1.462;2022-08-04T01:42:31;26.30;61.20
35637;DHT22;21758;43.542;1.462;2022-08-04T01:45:06;26.30;62.20
35637;DHT22;21758;43.542;1.462;2022-08-04T01:47:39;26.40;63.00
35637;DHT22;21758;43.542;1.462;2022-08-04T01:50:08;26.20;65.30
35637;DHT22;21758;43.542;1.462;2022-08-04T01:52:36;26.10;67.80
35637;DHT22;21758;43.542;1.462;2022-08-04T01:55:08;25.90;79.50
35637;DHT22;21758;43.542;1.462;2022-08-04T01:57:36;25.90;81.40
35637;DHT22;21758;43.542;1.462;2022-08-04T02:00:09;25.90;83.60
35637;DHT22;21758;43.542;1.462;2022-08-04T02:02:34;25.90;83.00
35637;DHT22;21758;43.542;1.462;2022-08-04T02:05:00;25.90;83.30
35637;DHT22;21758;43.542;1.462;2022-08-04T02:10:07;25.60;90.00
35637;DHT22;21758;43.542;1.462;2022-08-04T02:12:55;25.60;90.00
35637;DHT22;21758;43.542;1.462;2022-08-04T02:21:19;25.80;89.20
35637;DHT22;21758;43.542;1.462;2022-08-04T02:23:50;25.80;89.10
35637;DHT22;21758;43.542;1.462;2022-08-04T02:26:19;25.50;90.80
35637;DHT22;21758;43.542;1.462;2022-08-04T02:28:53;25.60;90.90
35637;DHT22;21758;43.542;1.462;2022-08-04T02:31:34;25.40;91.70
35637;DHT22;21758;43.542;1.462;2022-08-04T02:34:29;25.40;92.20
35637;DHT22;21758;43.542;1.462;2022-08-04T02:36:58;25.40;92.00
35637;DHT22;21758;43.542;1.462;2022-08-04T02:39:27;25.30;92.60
35637;DHT22;21758;43.542;1.462;2022-08-04T02:41:55;25.40;92.90
35637;DHT22;21758;43.542;1.462;2022-08-04T02:44:25;25.40;94.00
35637;DHT22;21758;43.542;1.462;2022-08-04T02:46:53;25.40;97.40
35637;DHT22;21758;43.542;1.462;2022-08-04T02:49:21;25.40;98.70
35637;DHT22;21758;43.542;1.462;2022-08-04T02:51:53;25.40;99.40
35637;DHT22;21758;43.542;1.462;2022-08-04T02:54:26;25.50;99.90
35637;DHT22;21758;43.542;1.462;2022-08-04T02:56:55;25.40;99.90
35637;DHT22;21758;43.542;1.462;2022-08-04T02:59:25;25.40;99.90
35637;DHT22;21758;43.542;1.462;2022-08-04T03:01:54;25.20;99.90
35637;DHT22;21758;43.542;1.462;2022-08-04T03:13:26;25.30;99.90
35637;DHT22;21758;43.542;1.462;2022-08-04T03:51:48;24.40;99.90
35637;DHT22;21758;43.542;1.462;2022-08-04T04:17:03;24.20;99.90
35637;DHT22;21758;43.542;1.462;2022-08-04T04:30:16;23.80;99.90
35637;DHT22;21758;43.542;1.462;2022-08-04T04:35:31;23.90;99.90
35637;DHT22;21758;43.542;1.462;2022-08-04T04:51:48;23.70;99.90
35637;DHT22;21758;43.542;1.462;2022-08-04T04:54:27;23.60;99.90
35637;DHT22;21758;43.542;1.462;2022-08-04T04:57:12;23.40;99.90
35637;DHT22;21758;43.542;1.462;2022-08-04T04:59:58;23.50;99.90
35637;DHT22;21758;43.542;1.462;2022-08-04T05:13:52;23.20;99.90
35637;DHT22;21758;43.542;1.462;2022-08-04T05:16:25;23.30;99.90
35637;DHT22;21758;43.542;1.462;2022-08-04T05:19:21;23.40;99.90
35637;DHT22;21758;43.542;1.462;2022-08-04T05:24:46;23.50;99.90
35637;DHT22;21758;43.542;1.462;2022-08-04T05:27:18;23.40;99.90
35637;DHT22;21758;43.542;1.462;2022-08-04T05:29:52;23.50;99.90
35637;DHT22;21758;43.542;1.462;2022-08-04T05:32:23;23.50;99.90
35637;DHT22;21758;43.542;1.462;2022-08-04T05:34:57;23.60;99.90
35637;DHT22;21758;43.542;1.462;2022-08-04T05:37:27;23.70;99.90
35637;DHT22;21758;43.542;1.462;2022-08-04T05:40:01;23.60;99.90
35637;DHT22;21758;43.542;1.462;2022-08-04T05:42:30;23.60;99.90
35637;DHT22;21758;43.542;1.462;2022-08-04T05:44:56;23.70;99.90
35637;DHT22;21758;43.542;1.462;2022-08-04T05:47:24;23.70;99.90
35637;DHT22;21758;43.542;1.462;2022-08-04T05:49:50;23.50;99.90
35637;DHT22;21758;43.542;1.462;2022-08-04T05:52:17;23.30;99.90
35637;DHT22;21758;43.542;1.462;2022-08-04T05:54:43;23.60;99.90
35637;DHT22;21758;43.542;1.462;2022-08-04T05:57:10;23.70;99.90
35637;DHT22;21758;43.542;1.462;2022-08-04T05:59:38;23.70;99.90
35637;DHT22;21758;43.542;1.462;2022-08-04T06:02:07;23.70;99.90
35637;DHT22;21758;43.542;1.462;2022-08-04T06:04:38;23.30;99.90
35637;DHT22;21758;43.542;1.462;2022-08-04T06:07:05;23.50;99.90
35637;DHT22;21758;43.542;1.462;2022-08-04T06:09:32;23.70;99.90
35637;DHT22;21758;43.542;1.462;2022-08-04T06:12:05;23.80;99.90
35637;DHT22;21758;43.542;1.462;2022-08-04T06:14:37;23.80;99.90
35637;DHT22;21758;43.542;1.462;2022-08-04T06:17:05;23.80;99.90
35637;DHT22;21758;43.542;1.462;2022-08-04T06:19:34;23.90;99.90
35637;DHT22;21758;43.542;1.462;2022-08-04T06:22:02;23.40;99.90
35637;DHT22;21758;43.542;1.462;2022-08-04T06:24:29;23.50;99.90
35637;DHT22;21758;43.542;1.462;2022-08-04T06:26:56;23.70;99.90
35637;DHT22;21758;43.542;1.462;2022-08-04T06:29:22;23.70;99.90
35637;DHT22;21758;43.542;1.462;2022-08-04T06:31:57;23.70;99.90
35637;DHT22;21758;43.542;1.462;2022-08-04T06:34:28;23.90;99.90
35637;DHT22;21758;43.542;1.462;2022-08-04T06:36:55;23.80;99.90
35637;DHT22;21758;43.542;1.462;2022-08-04T06:39:23;23.90;99.90
35637;DHT22;21758;43.542;1.462;2022-08-04T06:41:51;23.80;99.90
35637;DHT22;21758;43.542;1.462;2022-08-04T06:44:18;24.00;99.90
35637;DHT22;21758;43.542;1.462;2022-08-04T06:46:44;24.00;99.90
35637;DHT22;21758;43.542;1.462;2022-08-04T06:49:10;24.10;99.90
35637;DHT22;21758;43.542;1.462;2022-08-04T06:51:38;24.10;99.90
35637;DHT22;21758;43.542;1.462;2022-08-04T06:54:06;24.10;99.90
35637;DHT22;21758;43.542;1.462;2022-08-04T06:56:33;24.10;99.90
35637;DHT22;21758;43.542;1.462;2022-08-04T06:59:03;23.90;99.90
35637;DHT22;21758;43.542;1.462;2022-08-04T07:01:30;23.70;99.90
35637;DHT22;21758;43.542;1.462;2022-08-04T07:03:57;23.80;99.90
35637;DHT22;21758;43.542;1.462;2022-08-04T07:06:23;24.10;99.90
35637;DHT22;21758;43.542;1.462;2022-08-04T07:08:50;24.30;99.90
35637;DHT22;21758;43.542;1.462;2022-08-04T07:11:18;24.30;99.90
35637;DHT22;21758;43.542;1.462;2022-08-04T07:13:44;24.30;99.90
35637;DHT22;21758;43.542;1.462;2022-08-04T07:16:13;24.30;99.90
35637;DHT22;21758;43.542;1.462;2022-08-04T07:18:39;24.50;99.90
35637;DHT22;21758;43.542;1.462;2022-08-04T07:21:06;24.50;99.90
35637;DHT22;21758;43.542;1.462;2022-08-04T07:23:32;24.50;99.90
35637;DHT22;21758;43.542;1.462;2022-08-04T07:25:57;24.50;99.90
35637;DHT22;21758;43.542;1.462;2022-08-04T07:28:26;24.60;99.90
35637;DHT22;21758;43.542;1.462;2022-08-04T07:30:53;24.70;99.90
35637;DHT22;21758;43.542;1.462;2022-08-04T07:33:20;24.90;99.90
35637;DHT22;21758;43.542;1.462;2022-08-04T07:35:48;24.90;99.90
35637;DHT22;21758;43.542;1.462;2022-08-04T07:38:15;24.90;99.90
35637;DHT22;21758;43.542;1.462;2022-08-04T07:40:41;24.40;99.90
35637;DHT22;21758;43.542;1.462;2022-08-04T07:43:09;24.70;99.90
35637;DHT22;21758;43.542;1.462;2022-08-04T07:45:36;24.80;99.90
35637;DHT22;21758;43.542;1.462;2022-08-04T07:48:02;24.90;99.90
35637;DHT22;21758;43.542;1.462;2022-08-04T07:50:32;25.10;99.90
35637;DHT22;21758;43.542;1.462;2022-08-04T07:52:59;25.00;99.90
35637;DHT22;21758;43.542;1.462;2022-08-04T07:55:25;25.10;99.90
35637;DHT22;21758;43.542;1.462;2022-08-04T07:57:52;24.90;99.90
35637;DHT22;21758;43.542;1.462;2022-08-04T08:00:17;25.20;99.90
35637;DHT22;21758;43.542;1.462;2022-08-04T08:02:47;25.30;99.90
35637;DHT22;21758;43.542;1.462;2022-08-04T08:05:14;25.20;99.90
35637;DHT22;21758;43.542;1.462;2022-08-04T08:07:47;25.20;99.90
35637;DHT22;21758;43.542;1.462;2022-08-04T08:10:14;25.20;99.90
35637;DHT22;21758;43.542;1.462;2022-08-04T08:12:41;25.30;99.90
35637;DHT22;21758;43.542;1.462;2022-08-04T08:15:08;25.70;99.90
35637;DHT22;21758;43.542;1.462;2022-08-04T08:17:34;25.90;99.90
35637;DHT22;21758;43.542;1.462;2022-08-04T08:20:00;25.90;99.90
35637;DHT22;21758;43.542;1.462;2022-08-04T08:22:27;26.30;99.90
35637;DHT22;21758;43.542;1.462;2022-08-04T08:24:53;26.40;99.90
35637;DHT22;21758;43.542;1.462;2022-08-04T08:27:19;26.60;99.90
35637;DHT22;21758;43.542;1.462;2022-08-04T08:29:45;26.70;99.90
35637;DHT22;21758;43.542;1.462;2022-08-04T08:32:12;27.10;99.90
35637;DHT22;21758;43.542;1.462;2022-08-04T08:34:39;27.20;99.90
35637;DHT22;21758;43.542;1.462;2022-08-04T08:42:46;27.80;99.90
35637;DHT22;21758;43.542;1.462;2022-08-04T08:56:57;28.70;99.90
35637;DHT22;21758;43.542;1.462;2022-08-04T09:10:48;29.40;98.50
35637;DHT22;21758;43.542;1.462;2022-08-04T09:13:22;29.30;97.80
35637;DHT22;21758;43.542;1.462;2022-08-04T09:16:01;29.50;98.00
35637;DHT22;21758;43.542;1.462;2022-08-04T09:19:04;29.70;97.80
35637;DHT22;21758;43.542;1.462;2022-08-04T09:21:46;29.80;97.60
35637;DHT22;21758;43.542;1.462;2022-08-04T09:27:07;29.60;96.40
35637;DHT22;21758;43.542;1.462;2022-08-04T09:29:52;30.20;94.80
35637;DHT22;21758;43.542;1.462;2022-08-04T09:35:12;30.70;92.00
35637;DHT22;21758;43.542;1.462;2022-08-04T09:37:53;30.90;91.30
35637;DHT22;21758;43.542;1.462;2022-08-04T09:40:36;30.80;91.40
35637;DHT22;21758;43.542;1.462;2022-08-04T09:46:14;31.30;90.10
35637;DHT22;21758;43.542;1.462;2022-08-04T09:56:41;31.00;82.90
35637;DHT22;21758;43.542;1.462;2022-08-04T09:59:26;30.60;85.90
35637;DHT22;21758;43.542;1.462;2022-08-04T10:01:57;31.30;82.20
35637;DHT22;21758;43.542;1.462;2022-08-04T10:04:27;31.10;82.70
35637;DHT22;21758;43.542;1.462;2022-08-04T10:10:27;32.00;79.60
35637;DHT22;21758;43.542;1.462;2022-08-04T10:19:17;32.60;74.50
35637;DHT22;21758;43.542;1.462;2022-08-04T10:21:58;32.90;71.40
35637;DHT22;21758;43.542;1.462;2022-08-04T10:27:27;33.20;68.30
35637;DHT22;21758;43.542;1.462;2022-08-04T10:29:57;32.80;70.30
35637;DHT22;21758;43.542;1.462;2022-08-04T10:32:34;32.70;69.90
35637;DHT22;21758;43.542;1.462;2022-08-04T10:35:23;33.00;68.30
35637;DHT22;21758;43.542;1.462;2022-08-04T10:38:09;33.20;67.60
35637;DHT22;21758;43.542;1.462;2022-08-04T10:40:46;33.40;69.70
35637;DHT22;21758;43.542;1.462;2022-08-04T10:46:30;33.30;66.70
35637;DHT22;21758;43.542;1.462;2022-08-04T10:49:03;33.40;69.00
35637;DHT22;21758;43.542;1.462;2022-08-04T10:51:35;33.30;66.70
35637;DHT22;21758;43.542;1.462;2022-08-04T10:54:06;32.10;70.60
35637;DHT22;21758;43.542;1.462;2022-08-04T10:56:41;32.00;73.30
35637;DHT22;21758;43.542;1.462;2022-08-04T10:59:18;32.00;74.20
35637;DHT22;21758;43.542;1.462;2022-08-04T11:01:47;32.60;71.90
35637;DHT22;21758;43.542;1.462;2022-08-04T11:04:40;33.10;69.10
35637;DHT22;21758;43.542;1.462;2022-08-04T11:07:07;33.30;67.10
35637;DHT22;21758;43.542;1.462;2022-08-04T11:09:34;33.20;67.60
35637;DHT22;21758;43.542;1.462;2022-08-04T11:12:38;33.90;69.90
35637;DHT22;21758;43.542;1.462;2022-08-04T11:15:10;33.60;64.20
35637;DHT22;21758;43.542;1.462;2022-08-04T11:17:54;33.50;66.90
35637;DHT22;21758;43.542;1.462;2022-08-04T11:20:41;33.50;67.20
35637;DHT22;21758;43.542;1.462;2022-08-04T11:23:15;33.80;67.90
35637;DHT22;21758;43.542;1.462;2022-08-04T11:26:18;34.20;64.10
35637;DHT22;21758;43.542;1.462;2022-08-04T11:29:04;34.30;64.50
35637;DHT22;21758;43.542;1.462;2022-08-04T11:31:35;34.40;63.20
35637;DHT22;21758;43.542;1.462;2022-08-04T11:34:19;34.80;62.80
35637;DHT22;21758;43.542;1.462;2022-08-04T11:37:10;34.60;62.90
35637;DHT22;21758;43.542;1.462;2022-08-04T11:39:49;34.00;63.60
35637;DHT22;21758;43.542;1.462;2022-08-04T11:42:35;33.80;64.70
35637;DHT22;21758;43.542;1.462;2022-08-04T11:47:54;34.10;67.50
35637;DHT22;21758;43.542;1.462;2022-08-04T11:50:23;34.50;65.80
35637;DHT22;21758;43.542;1.462;2022-08-04T11:52:55;34.50;62.50
35637;DHT22;21758;43.542;1.462;2022-08-04T11:55:25;34.80;62.00
35637;DHT22;21758;43.542;1.462;2022-08-04T11:57:52;34.50;62.80
35637;DHT22;21758;43.542;1.462;2022-08-04T12:00:18;34.00;67.10
35637;DHT22;21758;43.542;1.462;2022-08-04T12:05:57;33.90;63.20
35637;DHT22;21758;43.542;1.462;2022-08-04T12:16:47;34.40;63.50
35637;DHT22;21758;43.542;1.462;2022-08-04T12:19:38;34.70;64.60
35637;DHT22;21758;43.542;1.462;2022-08-04T12:22:31;35.10;61.60
35637;DHT22;21758;43.542;1.462;2022-08-04T12:25:02;35.00;61.10
35637;DHT22;21758;43.542;1.462;2022-08-04T12:27:36;34.60;60.80
35637;DHT22;21758;43.542;1.462;2022-08-04T12:30:04;34.70;60.90
35637;DHT22;21758;43.542;1.462;2022-08-04T12:32:40;34.90;60.90
35637;DHT22;21758;43.542;1.462;2022-08-04T12:35:15;34.70;59.80
35637;DHT22;21758;43.542;1.462;2022-08-04T12:38:04;34.50;61.40
35637;DHT22;21758;43.542;1.462;2022-08-04T12:40:48;34.80;59.10
35637;DHT22;21758;43.542;1.462;2022-08-04T12:45:58;34.90;58.80
35637;DHT22;21758;43.542;1.462;2022-08-04T12:48:26;35.50;57.10
35637;DHT22;21758;43.542;1.462;2022-08-04T12:50:55;35.50;56.80
35637;DHT22;21758;43.542;1.462;2022-08-04T12:53:26;35.70;57.10
35637;DHT22;21758;43.542;1.462;2022-08-04T12:55:53;35.20;56.80
35637;DHT22;21758;43.542;1.462;2022-08-04T12:58:26;35.30;58.00
35637;DHT22;21758;43.542;1.462;2022-08-04T13:00:59;35.40;56.10
35637;DHT22;21758;43.542;1.462;2022-08-04T13:03:28;35.20;56.00
35637;DHT22;21758;43.542;1.462;2022-08-04T13:05:55;35.50;55.20
35637;DHT22;21758;43.542;1.462;2022-08-04T13:08:22;35.60;54.10
35637;DHT22;21758;43.542;1.462;2022-08-04T13:10:51;35.60;54.90
35637;DHT22;21758;43.542;1.462;2022-08-04T13:13:19;35.30;53.10
35637;DHT22;21758;43.542;1.462;2022-08-04T13:16:08;35.40;53.30
35637;DHT22;21758;43.542;1.462;2022-08-04T13:18:37;35.50;52.50
35637;DHT22;21758;43.542;1.462;2022-08-04T13:21:13;35.70;52.20
35637;DHT22;21758;43.542;1.462;2022-08-04T13:23:42;36.10;50.40
35637;DHT22;21758;43.542;1.462;2022-08-04T13:26:11;36.00;49.90
35637;DHT22;21758;43.542;1.462;2022-08-04T13:28:40;35.90;48.70
35637;DHT22;21758;43.542;1.462;2022-08-04T13:31:07;36.10;49.00
35637;DHT22;21758;43.542;1.462;2022-08-04T13:33:38;35.40;49.60
35637;DHT22;21758;43.542;1.462;2022-08-04T13:36:06;35.50;49.60
35637;DHT22;21758;43.542;1.462;2022-08-04T13:38:32;35.50;50.90
35637;DHT22;21758;43.542;1.462;2022-08-04T13:41:02;35.50;48.70
35637;DHT22;21758;43.542;1.462;2022-08-04T13:44:17;35.10;50.00
35637;DHT22;21758;43.542;1.462;2022-08-04T13:46:27;35.20;49.60
35637;DHT22;21758;43.542;1.462;2022-08-04T13:48:55;35.10;48.70
35637;DHT22;21758;43.542;1.462;2022-08-04T13:51:22;35.00;49.30
35637;DHT22;21758;43.542;1.462;2022-08-04T13:53:58;35.40;48.30
35637;DHT22;21758;43.542;1.462;2022-08-04T13:56:30;35.20;46.30
35637;DHT22;21758;43.542;1.462;2022-08-04T13:58:59;35.50;46.50
35637;DHT22;21758;43.542;1.462;2022-08-04T14:01:27;35.40;46.10
35637;DHT22;21758;43.542;1.462;2022-08-04T14:06:30;35.30;47.00
35637;DHT22;21758;43.542;1.462;2022-08-04T14:09:01;35.20;43.60
35637;DHT22;21758;43.542;1.462;2022-08-04T14:11:37;35.30;44.50
35637;DHT22;21758;43.542;1.462;2022-08-04T14:14:31;35.20;43.90
35637;DHT22;21758;43.542;1.462;2022-08-04T14:17:08;35.30;43.80
35637;DHT22;21758;43.542;1.462;2022-08-04T14:25:14;35.10;43.20
35637;DHT22;21758;43.542;1.462;2022-08-04T14:30:34;34.90;41.10
35637;DHT22;21758;43.542;1.462;2022-08-04T14:33:01;35.00;41.90
35637;DHT22;21758;43.542;1.462;2022-08-04T14:35:29;34.90;41.90
35637;DHT22;21758;43.542;1.462;2022-08-04T14:38:01;34.90;41.70
35637;DHT22;21758;43.542;1.462;2022-08-04T14:40:29;35.00;41.60
35637;DHT22;21758;43.542;1.462;2022-08-04T14:42:57;35.30;38.40
35637;DHT22;21758;43.542;1.462;2022-08-04T14:47:59;35.70;37.00
35637;DHT22;21758;43.542;1.462;2022-08-04T14:50:43;35.60;37.00
35637;DHT22;21758;43.542;1.462;2022-08-04T14:53:11;35.50;37.50
35637;DHT22;21758;43.542;1.462;2022-08-04T14:55:41;35.70;38.40
35637;DHT22;21758;43.542;1.462;2022-08-04T14:58:21;35.60;37.00
35637;DHT22;21758;43.542;1.462;2022-08-04T15:00:48;35.30;37.60
35637;DHT22;21758;43.542;1.462;2022-08-04T15:03:14;35.80;37.60
35637;DHT22;21758;43.542;1.462;2022-08-04T15:05:41;35.60;36.10
35637;DHT22;21758;43.542;1.462;2022-08-04T15:08:15;35.60;36.10
35637;DHT22;21758;43.542;1.462;2022-08-04T15:10:44;35.70;34.80
35637;DHT22;21758;43.542;1.462;2022-08-04T15:13:11;35.50;35.80
35637;DHT22;21758;43.542;1.462;2022-08-04T15:15:40;35.50;36.40
35637;DHT22;21758;43.542;1.462;2022-08-04T15:18:07;35.20;35.70
35637;DHT22;21758;43.542;1.462;2022-08-04T15:20:34;35.50;34.50
35637;DHT22;21758;43.542;1.462;2022-08-04T15:23:01;35.50;36.00
35637;DHT22;21758;43.542;1.462;2022-08-04T15:25:38;35.80;36.00
35637;DHT22;21758;43.542;1.462;2022-08-04T15:28:07;35.70;37.60
35637;DHT22;21758;43.542;1.462;2022-08-04T15:30:37;35.70;38.40
35637;DHT22;21758;43.542;1.462;2022-08-04T15:33:04;35.40;39.60
35637;DHT22;21758;43.542;1.462;2022-08-04T15:35:30;35.60;40.60
35637;DHT22;21758;43.542;1.462;2022-08-04T15:40:58;35.50;40.40
35637;DHT22;21758;43.542;1.462;2022-08-04T15:45:57;35.60;41.40
35637;DHT22;21758;43.542;1.462;2022-08-04T15:48:30;35.40;43.00
35637;DHT22;21758;43.542;1.462;2022-08-04T15:53:31;35.40;44.20
35637;DHT22;21758;43.542;1.462;2022-08-04T15:55:58;35.00;44.80
35637;DHT22;21758;43.542;1.462;2022-08-04T15:58:23;35.10;45.30
35637;DHT22;21758;43.542;1.462;2022-08-04T16:16:49;34.90;46.70
35637;DHT22;21758;43.542;1.462;2022-08-04T16:22:00;35.00;46.40
35637;DHT22;21758;43.542;1.462;2022-08-04T16:24:34;35.00;46.00
35637;DHT22;21758;43.542;1.462;2022-08-04T16:27:01;34.70;46.50
35637;DHT22;21758;43.542;1.462;2022-08-04T16:29:39;34.80;46.40
35637;DHT22;21758;43.542;1.462;2022-08-04T16:37:05;34.20;47.00
35637;DHT22;21758;43.542;1.462;2022-08-04T16:39:32;34.00;48.10
35637;DHT22;21758;43.542;1.462;2022-08-04T16:41:58;34.00;48.40
35637;DHT22;21758;43.542;1.462;2022-08-04T16:46:52;33.90;49.10
35637;DHT22;21758;43.542;1.462;2022-08-04T16:49:18;33.90;49.30
35637;DHT22;21758;43.542;1.462;2022-08-04T16:51:44;33.70;49.40
35637;DHT22;21758;43.542;1.462;2022-08-04T16:54:10;33.70;50.50
35637;DHT22;21758;43.542;1.462;2022-08-04T16:56:36;33.40;52.20
35637;DHT22;21758;43.542;1.462;2022-08-04T16:59:11;33.60;53.00
35637;DHT22;21758;43.542;1.462;2022-08-04T17:01:44;33.50;53.70
35637;DHT22;21758;43.542;1.462;2022-08-04T17:04:11;33.20;55.10
35637;DHT22;21758;43.542;1.462;2022-08-04T17:06:39;32.90;57.20
35637;DHT22;21758;43.542;1.462;2022-08-04T17:09:17;32.80;57.90
35637;DHT22;21758;43.542;1.462;2022-08-04T17:11:45;32.70;59.10
35637;DHT22;21758;43.542;1.462;2022-08-04T17:14:17;32.60;60.60
35637;DHT22;21758;43.542;1.462;2022-08-04T17:16:45;32.60;61.20
35637;DHT22;21758;43.542;1.462;2022-08-04T17:19:10;32.40;60.70
35637;DHT22;21758;43.542;1.462;2022-08-04T17:21:37;32.40;60.90
35637;DHT22;21758;43.542;1.462;2022-08-04T17:24:04;32.40;61.00
35637;DHT22;21758;43.542;1.462;2022-08-04T17:26:32;32.30;61.30
35637;DHT22;21758;43.542;1.462;2022-08-04T17:28:59;32.30;61.50
35637;DHT22;21758;43.542;1.462;2022-08-04T17:31:27;32.20;62.90
35637;DHT22;21758;43.542;1.462;2022-08-04T17:33:55;32.20;63.80
35637;DHT22;21758;43.542;1.462;2022-08-04T17:36:29;32.30;63.80
35637;DHT22;21758;43.542;1.462;2022-08-04T17:39:00;32.40;64.40
35637;DHT22;21758;43.542;1.462;2022-08-04T17:41:28;32.40;65.80
35637;DHT22;21758;43.542;1.462;2022-08-04T17:43:59;32.40;66.30
35637;DHT22;21758;43.542;1.462;2022-08-04T17:46:36;32.40;67.60
35637;DHT22;21758;43.542;1.462;2022-08-04T17:51:51;32.00;70.80
35637;DHT22;21758;43.542;1.462;2022-08-04T17:54:31;32.00;71.60
35637;DHT22;21758;43.542;1.462;2022-08-04T17:57:12;32.20;71.80
35637;DHT22;21758;43.542;1.462;2022-08-04T17:59:43;32.00;73.00
35637;DHT22;21758;43.542;1.462;2022-08-04T18:02:10;31.90;74.60
35637;DHT22;21758;43.542;1.462;2022-08-04T18:04:49;31.80;75.90
35637;DHT22;21758;43.542;1.462;2022-08-04T18:07:17;31.60;77.90
35637;DHT22;21758;43.542;1.462;2022-08-04T18:12:32;31.70;79.30
35637;DHT22;21758;43.542;1.462;2022-08-04T18:15:00;31.50;80.70
35637;DHT22;21758;43.542;1.462;2022-08-04T18:20:11;31.30;83.60
35637;DHT22;21758;43.542;1.462;2022-08-04T18:22:42;31.20;84.30
35637;DHT22;21758;43.542;1.462;2022-08-04T18:25:10;31.10;87.10
35637;DHT22;21758;43.542;1.462;2022-08-04T18:27:50;31.00;88.80
35637;DHT22;21758;43.542;1.462;2022-08-04T18:30:16;30.90;90.60
35637;DHT22;21758;43.542;1.462;2022-08-04T18:32:45;31.00;90.40
35637;DHT22;21758;43.542;1.462;2022-08-04T18:35:14;31.00;91.20
35637;DHT22;21758;43.542;1.462;2022-08-04T18:37:44;30.80;92.30
35637;DHT22;21758;43.542;1.462;2022-08-04T18:40:10;30.80;92.80
35637;DHT22;21758;43.542;1.462;2022-08-04T18:42:39;30.60;94.10
35637;DHT22;21758;43.542;1.462;2022-08-04T18:45:05;30.40;94.90
35637;DHT22;21758;43.542;1.462;2022-08-04T18:47:31;30.70;94.60
35637;DHT22;21758;43.542;1.462;2022-08-04T18:49:58;30.50;95.90
35637;DHT22;21758;43.542;1.462;2022-08-04T18:52:24;30.40;96.40
35637;DHT22;21758;43.542;1.462;2022-08-04T18:54:50;30.50;96.40
35637;DHT22;21758;43.542;1.462;2022-08-04T18:57:24;30.40;97.30
35637;DHT22;21758;43.542;1.462;2022-08-04T18:59:50;30.40;97.40
35637;DHT22;21758;43.542;1.462;2022-08-04T19:02:16;30.40;98.00
35637;DHT22;21758;43.542;1.462;2022-08-04T19:04:42;30.10;99.40
35637;DHT22;21758;43.542;1.462;2022-08-04T19:07:09;30.20;99.60
35637;DHT22;21758;43.542;1.462;2022-08-04T19:09:38;30.00;99.90
35637;DHT22;21758;43.542;1.462;2022-08-04T19:12:04;30.00;99.90
35637;DHT22;21758;43.542;1.462;2022-08-04T19:14:30;30.00;99.90
35637;DHT22;21758;43.542;1.462;2022-08-04T19:16:55;29.90;99.90
35637;DHT22;21758;43.542;1.462;2022-08-04T19:19:21;29.90;99.90
35637;DHT22;21758;43.542;1.462;2022-08-04T19:21:47;29.90;99.90
35637;DHT22;21758;43.542;1.462;2022-08-04T19:24:12;29.80;99.90
35637;DHT22;21758;43.542;1.462;2022-08-04T19:26:38;29.70;99.90
35637;DHT22;21758;43.542;1.462;2022-08-04T19:29:05;29.90;99.90
35637;DHT22;21758;43.542;1.462;2022-08-04T19:31:31;29.80;99.90
35637;DHT22;21758;43.542;1.462;2022-08-04T19:33:56;29.60;99.90
35637;DHT22;21758;43.542;1.462;2022-08-04T19:36:23;29.60;99.90
35637;DHT22;21758;43.542;1.462;2022-08-04T19:38:49;29.50;99.90
35637;DHT22;21758;43.542;1.462;2022-08-04T19:41:15;29.60;99.90
35637;DHT22;21758;43.542;1.462;2022-08-04T19:43:44;29.50;99.90
35637;DHT22;21758;43.542;1.462;2022-08-04T19:46:14;29.30;99.90
35637;DHT22;21758;43.542;1.462;2022-08-04T19:48:40;29.40;99.90
35637;DHT22;21758;43.542;1.462;2022-08-04T19:51:06;29.40;99.90
35637;DHT22;21758;43.542;1.462;2022-08-04T19:53:32;29.20;99.90
35637;DHT22;21758;43.542;1.462;2022-08-04T19:55:58;29.10;99.90
35637;DHT22;21758;43.542;1.462;2022-08-04T19:58:24;29.20;99.90
35637;DHT22;21758;43.542;1.462;2022-08-04T20:00:50;29.20;99.90
35637;DHT22;21758;43.542;1.462;2022-08-04T20:03:16;29.10;99.90
35637;DHT22;21758;43.542;1.462;2022-08-04T20:05:43;29.10;99.90
35637;DHT22;21758;43.542;1.462;2022-08-04T20:08:09;29.00;99.90
35637;DHT22;21758;43.542;1.462;2022-08-04T20:10:36;29.00;99.90
35637;DHT22;21758;43.542;1.462;2022-08-04T20:13:02;28.80;99.90
35637;DHT22;21758;43.542;1.462;2022-08-04T20:15:28;28.80;99.90
35637;DHT22;21758;43.542;1.462;2022-08-04T20:17:54;28.60;99.90
35637;DHT22;21758;43.542;1.462;2022-08-04T20:20:20;28.70;99.90
35637;DHT22;21758;43.542;1.462;2022-08-04T20:22:45;28.60;99.90
35637;DHT22;21758;43.542;1.462;2022-08-04T20:25:11;28.60;99.90
35637;DHT22;21758;43.542;1.462;2022-08-04T20:27:37;28.60;99.90
35637;DHT22;21758;43.542;1.462;2022-08-04T20:30:03;28.80;99.90
35637;DHT22;21758;43.542;1.462;2022-08-04T20:32:29;28.90;99.90
35637;DHT22;21758;43.542;1.462;2022-08-04T20:34:56;28.80;99.90
35637;DHT22;21758;43.542;1.462;2022-08-04T20:37:23;28.90;99.90
35637;DHT22;21758;43.542;1.462;2022-08-04T20:39:57;28.60;99.90
35637;DHT22;21758;43.542;1.462;2022-08-04T20:42:24;28.50;99.90
35637;DHT22;21758;43.542;1.462;2022-08-04T20:44:51;28.50;99.90
35637;DHT22;21758;43.542;1.462;2022-08-04T20:47:17;28.60;99.90
35637;DHT22;21758;43.542;1.462;2022-08-04T20:49:42;28.60;99.90